Overview Statistics Trail Chart Weather Telemetry Raw packets
 

This is the latest recevied weather packets stored in our database for station/object HS2GJW-1. If no packets are shown the sender has not sent any weather packets the latest 10 day(s).

<< 14 15 16 17 18 19 20 >>
Time Temp. Humidity Pressure Rain* Wind** Luminosity Snow
1787999213 30.56° C 99% 1006 hPa - - 0 W/m² -
1787998589 30° C 99% 1006 hPa - - 0 W/m² -
1787997964 30° C 99% 1006 hPa - - 0 W/m² -
1787997336 29.44° C 99% 1006 hPa - - 0 W/m² -
1787996710 29.44° C 99% 1006 hPa - - 0 W/m² -
1787996086 29.44° C 99% 1007 hPa - - 0 W/m² -
1787995460 29.44° C 97% 1007 hPa - - 0 W/m² -
1787994836 29.44° C 94% 1007 hPa - - 0 W/m² -
1787994212 29.44° C 91% 1007 hPa - - 0 W/m² -
1787993587 32.78° C 81% 1007 hPa - - 0 W/m² -
1787992961 33.33° C 78% 1006 hPa - - 0 W/m² -
1787992336 33.89° C 74% 1006 hPa - - 0 W/m² -
1787991711 34.44° C 73% 1006 hPa - - 0 W/m² -
1787991087 33.89° C 72% 1006 hPa - - 0 W/m² -
1787990463 33.89° C 71% 1006 hPa - - 0 W/m² -
1787989839 33.89° C 69% 1006 hPa - - 0 W/m² -
1787989214 34.44° C 68% 1006 hPa - - 0 W/m² -
1787988590 35° C 67% 1006 hPa - - 0 W/m² -
1787987964 35° C 70% 1006 hPa - - 0 W/m² -
1787987339 35° C 73% 1006 hPa - - 0 W/m² -
1787986715 35° C 71% 1006 hPa - - 0 W/m² -
1787986091 35° C 68% 1007 hPa - - 0 W/m² -
1787985467 35° C 71% 1007 hPa - - 0 W/m² -
1787984841 34.44° C 77% 1007 hPa - - 0 W/m² -
1787984217 33.89° C 78% 1007 hPa - - 0 W/m² -

* Rain since midnight (hover to see other rain measurements)
** Current wind speed in m/s (hover to see current wind gust speed)